Time;durP1;ratioP1;P1;durP2;ratioP2;P2;SDS_P1;SDS_P2;PMS_P1;PMS_P2;Temp;Humidity;BMP_temperature;BMP_pressure;BME280_temperature;BME280_humidity;BME280_pressure;Samples;Min_cycle;Max_cycle;Signal;HPM_P1;HPM_P2
2021/12/13 00:02:20;;;;;;;106.47;28.48;;;;;;;;;;5053444;28;20118;-64
2021/12/13 00:04:55;;;;;;;97.65;27.48;;;;;;;;;;5053485;28;20037;-64
2021/12/13 00:07:23;;;;;;;103.40;28.15;;;;;;;;;;5052791;28;20116;-64
2021/12/13 00:09:51;;;;;;;96.03;28.50;;;;;;;;;;5053384;28;20043;-64
2021/12/13 00:12:28;;;;;;;110.00;28.85;;;;;;;;;;5053121;28;20052;-64
2021/12/13 00:14:55;;;;;;;94.93;26.23;;;;;;;;;;5052656;28;20102;-64
2021/12/13 00:17:29;;;;;;;95.70;27.58;;;;;;;;;;5053179;28;20442;-64
2021/12/13 00:19:59;;;;;;;95.45;26.77;;;;;;;;;;5052865;28;20040;-64
2021/12/13 00:23:01;;;;;;;97.38;27.83;;;;;;;;;;5052212;28;20507;-64
2021/12/13 00:25:28;;;;;;;98.22;27.33;;;;;;;;;;4971508;28;20397;-64
2021/12/13 00:27:57;;;;;;;94.07;28.85;;;;;;;;;;5037224;28;20053;-64
2021/12/13 00:30:32;;;;;;;88.88;25.60;;;;;;;;;;5052320;28;20073;-64
2021/12/13 00:33:17;;;;;;;83.20;24.33;;;;;;;;;;5052821;28;20506;-64
2021/12/13 00:35:46;;;;;;;86.75;24.60;;;;;;;;;;5052115;28;20116;-64
2021/12/13 00:38:13;;;;;;;84.72;25.63;;;;;;;;;;5052763;28;20530;-64
2021/12/13 00:40:43;;;;;;;96.75;26.48;;;;;;;;;;5052823;28;20037;-64
2021/12/13 00:43:11;;;;;;;86.32;26.13;;;;;;;;;;5051868;28;20037;-64
2021/12/13 00:45:39;;;;;;;93.53;27.48;;;;;;;;;;5052854;28;20033;-64
2021/12/13 00:48:06;;;;;;;101.78;26.42;;;;;;;;;;5052788;28;20512;-64
2021/12/13 00:50:53;;;;;;;96.57;26.48;;;;;;;;;;5052068;28;20123;-64
2021/12/13 00:53:21;;;;;;;91.65;26.23;;;;;;;;;;5051951;28;20048;-64
2021/12/13 00:55:47;;;;;;;100.72;27.02;;;;;;;;;;5052621;28;20040;-64
2021/12/13 00:58:15;;;;;;;87.38;26.05;;;;;;;;;;5051904;28;20484;-64
2021/12/13 01:00:41;;;;;;;96.85;26.60;;;;;;;;;;5052607;28;20033;-63
2021/12/13 01:03:12;;;;;;;71.93;23.48;;;;;;;;;;5052354;28;20047;-64
2021/12/13 01:05:41;;;;;;;79.70;23.38;;;;;;;;;;5051991;28;20471;-63
2021/12/13 01:08:13;;;;;;;70.13;21.65;;;;;;;;;;5052448;28;20041;-64
2021/12/13 01:10:40;;;;;;;71.07;21.17;;;;;;;;;;5052403;28;20049;-64
2021/12/13 01:13:13;;;;;;;53.95;19.73;;;;;;;;;;5051340;28;20049;-64
2021/12/13 01:15:46;;;;;;;51.22;18.13;;;;;;;;;;5052356;28;20041;-64
2021/12/13 01:18:23;;;;;;;56.70;19.05;;;;;;;;;;5052165;28;20052;-64
2021/12/13 01:21:31;;;;;;;52.92;18.23;;;;;;;;;;5051635;28;20045;-63
2021/12/13 01:23:48;;;;;;;46.55;18.17;;;;;;;;;;5050718;28;20446;-64
2021/12/13 01:28:47;;;;;;;59.15;20.00;;;;;;;;;;5051228;28;20132;-64
2021/12/13 01:31:18;;;;;;;58.55;21.33;;;;;;;;;;5051864;28;20170;-64
2021/12/13 01:33:46;;;;;;;58.20;20.48;;;;;;;;;;5051832;28;20095;-64
2021/12/13 01:36:14;;;;;;;54.45;20.63;;;;;;;;;;5051173;28;20051;-64
2021/12/13 01:38:50;;;;;;;56.35;20.77;;;;;;;;;;5051798;28;20047;-64
2021/12/13 01:41:21;;;;;;;64.60;21.95;;;;;;;;;;5051598;28;20473;-64
2021/12/13 01:43:50;;;;;;;48.35;18.65;;;;;;;;;;5050647;28;20036;-64
2021/12/13 01:46:17;;;;;;;49.65;19.40;;;;;;;;;;5051670;28;20032;-63
2021/12/13 01:48:44;;;;;;;52.35;19.67;;;;;;;;;;5051316;28;20087;-63
2021/12/13 01:51:12;;;;;;;50.50;19.25;;;;;;;;;;5050951;28;20076;-63
2021/12/13 01:53:41;;;;;;;50.65;17.88;;;;;;;;;;5051537;28;20045;-63
2021/12/13 01:56:23;;;;;;;51.55;19.20;;;;;;;;;;5051664;28;20041;-63
2021/12/13 01:58:49;;;;;;;46.22;18.20;;;;;;;;;;5050904;28;20444;-64
2021/12/13 02:01:19;;;;;;;47.17;19.75;;;;;;;;;;5033405;28;20068;-63
2021/12/13 02:03:52;;;;;;;51.20;19.95;;;;;;;;;;5050355;28;20484;-63
2021/12/13 02:06:27;;;;;;;55.75;20.90;;;;;;;;;;5050716;28;20041;-63
2021/12/13 02:08:54;;;;;;;53.65;20.65;;;;;;;;;;5051218;28;20041;-63
2021/12/13 02:11:21;;;;;;;42.97;19.25;;;;;;;;;;5051038;28;20037;-63
2021/12/13 02:14:05;;;;;;;53.70;22.23;;;;;;;;;;5050311;28;20530;-64
2021/12/13 02:16:58;;;;;;;50.95;21.45;;;;;;;;;;5051052;28;20048;-63
2021/12/13 02:19:31;;;;;;;51.28;20.55;;;;;;;;;;5049993;28;20323;-63
2021/12/13 02:22:04;;;;;;;52.00;21.40;;;;;;;;;;5050833;28;20099;-63
2021/12/13 02:24:30;;;;;;;55.65;20.48;;;;;;;;;;5050476;28;20415;-64
2021/12/13 02:26:59;;;;;;;53.30;20.75;;;;;;;;;;5050048;28;20486;-64
2021/12/13 02:29:35;;;;;;;53.75;20.92;;;;;;;;;;5050679;28;20071;-64
2021/12/13 02:32:01;;;;;;;53.28;20.67;;;;;;;;;;5050802;28;20052;-64
2021/12/13 02:34:30;;;;;;;51.05;21.17;;;;;;;;;;5049602;28;20037;-64
2021/12/13 02:36:56;;;;;;;51.95;19.05;;;;;;;;;;5050579;28;20047;-64
2021/12/13 02:39:31;;;;;;;45.33;19.13;;;;;;;;;;5050683;28;20047;-64
2021/12/13 02:41:59;;;;;;;51.95;20.25;;;;;;;;;;5049611;28;20036;-64
2021/12/13 02:44:29;;;;;;;50.55;19.63;;;;;;;;;;5050224;28;20076;-64
2021/12/13 02:46:58;;;;;;;54.80;20.95;;;;;;;;;;5050552;28;20047;-64
2021/12/13 02:49:24;;;;;;;55.92;21.55;;;;;;;;;;5049820;28;20123;-64
2021/12/13 02:51:58;;;;;;;48.83;20.73;;;;;;;;;;5050638;28;20041;-64
2021/12/13 02:54:26;;;;;;;51.45;20.70;;;;;;;;;;5032540;28;20044;-64
2021/12/13 02:56:54;;;;;;;52.15;20.58;;;;;;;;;;5049756;28;20045;-64
2021/12/13 02:59:22;;;;;;;47.38;20.02;;;;;;;;;;5050422;28;20313;-64
2021/12/13 03:01:48;;;;;;;40.70;19.45;;;;;;;;;;5050359;28;20102;-64
2021/12/13 03:04:18;;;;;;;46.88;20.20;;;;;;;;;;5049532;28;20041;-64
2021/12/13 03:06:50;;;;;;;45.70;19.73;;;;;;;;;;5050444;28;20123;-64
2021/12/13 03:09:18;;;;;;;41.17;19.35;;;;;;;;;;5050237;28;20037;-64
2021/12/13 03:11:46;;;;;;;42.90;20.67;;;;;;;;;;5049467;28;20510;-64
2021/12/13 03:14:17;;;;;;;51.63;19.90;;;;;;;;;;5050315;28;20087;-64
2021/12/13 03:16:48;;;;;;;43.47;18.92;;;;;;;;;;5050141;28;20044;-64
2021/12/13 03:19:36;;;;;;;43.90;18.58;;;;;;;;;;5049301;28;20029;-64
2021/12/13 03:22:15;;;;;;;45.10;18.75;;;;;;;;;;5049073;28;20526;-64
2021/12/13 03:24:44;;;;;;;44.88;17.50;;;;;;;;;;5049658;28;20045;-64
2021/12/13 03:27:17;;;;;;;39.88;17.15;;;;;;;;;;5049417;28;20095;-64
2021/12/13 03:29:43;;;;;;;42.55;18.20;;;;;;;;;;5050068;28;20045;-64
2021/12/13 03:32:15;;;;;;;37.35;16.67;;;;;;;;;;5050023;28;20507;-64
2021/12/13 03:34:44;;;;;;;35.80;17.08;;;;;;;;;;5049340;28;20479;-64
2021/12/13 03:37:15;;;;;;;35.22;15.85;;;;;;;;;;5050025;28;20049;-64
2021/12/13 03:39:44;;;;;;;34.90;16.08;;;;;;;;;;5050232;28;20044;-64
2021/12/13 03:42:33;;;;;;;31.13;15.35;;;;;;;;;;5049161;28;20060;-64
2021/12/13 03:45:01;;;;;;;32.88;14.77;;;;;;;;;;5039382;28;20051;-64
2021/12/13 03:47:29;;;;;;;26.45;13.85;;;;;;;;;;5050078;28;20438;-64
2021/12/13 03:50:00;;;;;;;24.52;13.77;;;;;;;;;;5049312;28;20103;-64
2021/12/13 03:52:28;;;;;;;28.58;13.70;;;;;;;;;;5049781;28;20044;-64
2021/12/13 03:54:55;;;;;;;30.17;13.45;;;;;;;;;;5049835;28;20044;-64
2021/12/13 03:57:21;;;;;;;28.48;13.20;;;;;;;;;;5048906;28;20056;-64
2021/12/13 03:59:47;;;;;;;28.50;13.30;;;;;;;;;;5049754;28;20499;-64
2021/12/13 04:02:17;;;;;;;24.27;13.57;;;;;;;;;;5049523;28;20480;-64
2021/12/13 04:04:46;;;;;;;24.63;12.48;;;;;;;;;;5048918;28;20041;-64
2021/12/13 04:07:23;;;;;;;24.45;12.25;;;;;;;;;;5049671;28;20044;-64
2021/12/13 04:09:55;;;;;;;24.73;11.68;;;;;;;;;;5049705;28;20488;-64
2021/12/13 04:12:25;;;;;;;21.77;11.27;;;;;;;;;;5049080;28;20077;-64
2021/12/13 04:14:56;;;;;;;24.92;10.40;;;;;;;;;;5049675;28;20041;-64
2021/12/13 04:17:42;;;;;;;22.13;10.87;;;;;;;;;;5049321;28;20052;-64
2021/12/13 04:20:28;;;;;;;20.63;10.27;;;;;;;;;;5049785;28;20685;-64
2021/12/13 04:22:57;;;;;;;21.23;10.55;;;;;;;;;;5031176;28;20060;-64
2021/12/13 04:25:25;;;;;;;22.33;10.65;;;;;;;;;;5048782;28;20426;-64
2021/12/13 04:27:54;;;;;;;18.08;10.15;;;;;;;;;;5051430;28;20072;-64
2021/12/13 04:30:29;;;;;;;24.88;10.02;;;;;;;;;;5053046;28;20041;-64
2021/12/13 04:33:00;;;;;;;24.77;9.88;;;;;;;;;;5052250;28;20048;-64
2021/12/13 04:35:27;;;;;;;22.30;9.90;;;;;;;;;;5052704;28;20040;-64
2021/12/13 04:37:54;;;;;;;24.33;10.30;;;;;;;;;;5034727;28;20094;-64
2021/12/13 04:40:25;;;;;;;23.60;9.90;;;;;;;;;;5034144;28;20045;-64
2021/12/13 04:42:56;;;;;;;26.00;10.65;;;;;;;;;;5052710;28;20120;-64
2021/12/13 04:45:24;;;;;;;21.00;9.82;;;;;;;;;;5052552;28;20040;-64
2021/12/13 04:48:22;;;;;;;21.05;9.65;;;;;;;;;;5052169;28;20041;-64
2021/12/13 04:50:51;;;;;;;20.48;10.25;;;;;;;;;;5008416;28;20057;-64
2021/12/13 04:53:18;;;;;;;18.85;10.32;;;;;;;;;;5052693;28;20048;-64
2021/12/13 04:55:44;;;;;;;21.83;10.95;;;;;;;;;;5051867;28;20087;-64
2021/12/13 04:58:12;;;;;;;27.83;11.73;;;;;;;;;;5052487;28;20041;-64
2021/12/13 05:00:40;;;;;;;28.63;11.43;;;;;;;;;;5034570;28;20080;-64
2021/12/13 05:03:06;;;;;;;24.42;10.82;;;;;;;;;;5051743;28;20119;-64
2021/12/13 05:05:34;;;;;;;26.13;11.15;;;;;;;;;;5052367;28;20041;-64
2021/12/13 05:08:00;;;;;;;21.02;10.82;;;;;;;;;;5052504;28;20128;-64
2021/12/13 05:10:26;;;;;;;18.60;10.30;;;;;;;;;;5033913;28;20128;-64
2021/12/13 05:13:00;;;;;;;19.55;10.32;;;;;;;;;;5051929;28;20047;-64
2021/12/13 05:15:27;;;;;;;19.35;10.50;;;;;;;;;;5052282;28;20411;-64
2021/12/13 05:17:53;;;;;;;19.42;9.70;;;;;;;;;;5051612;28;20091;-64
2021/12/13 05:20:25;;;;;;;25.02;9.70;;;;;;;;;;5052266;28;20044;-64
2021/12/13 05:22:59;;;;;;;19.48;9.32;;;;;;;;;;5051903;28;20053;-64
2021/12/13 05:25:28;;;;;;;16.90;9.02;;;;;;;;;;5051198;28;20060;-64
2021/12/13 05:27:59;;;;;;;23.67;9.38;;;;;;;;;;5051862;28;20091;-64
2021/12/13 05:30:25;;;;;;;19.88;9.23;;;;;;;;;;5051966;28;20049;-64
2021/12/13 05:32:54;;;;;;;18.80;9.23;;;;;;;;;;5051065;28;20045;-64
2021/12/13 05:35:22;;;;;;;20.17;9.90;;;;;;;;;;5051957;28;20041;-64
2021/12/13 05:37:50;;;;;;;16.25;8.50;;;;;;;;;;5051465;28;20041;-64
2021/12/13 05:40:37;;;;;;;19.45;8.60;;;;;;;;;;5049758;28;20067;-64
2021/12/13 05:43:12;;;;;;;17.35;8.77;;;;;;;;;;5037562;28;20526;-64
2021/12/13 05:45:43;;;;;;;22.52;9.57;;;;;;;;;;5051479;28;20045;-64
2021/12/13 05:48:12;;;;;;;17.30;7.97;;;;;;;;;;5050944;28;20563;-64
2021/12/13 05:50:45;;;;;;;17.38;8.23;;;;;;;;;;5051569;28;20102;-64
2021/12/13 05:53:16;;;;;;;15.60;8.32;;;;;;;;;;5051152;28;20052;-64
2021/12/13 05:55:50;;;;;;;17.13;7.53;;;;;;;;;;5050314;28;20403;-64
2021/12/13 05:58:28;;;;;;;19.02;8.57;;;;;;;;;;5051036;28;20076;-64
2021/12/13 06:00:57;;;;;;;15.23;8.75;;;;;;;;;;5051188;28;20094;-64
2021/12/13 06:03:31;;;;;;;16.23;8.35;;;;;;;;;;5050194;28;20407;-64
2021/12/13 06:06:04;;;;;;;16.23;8.73;;;;;;;;;;5050975;28;20120;-64
2021/12/13 06:08:32;;;;;;;17.40;9.27;;;;;;;;;;5051640;28;20040;-64
2021/12/13 06:11:12;;;;;;;17.75;8.50;;;;;;;;;;5050285;28;20044;-64
2021/12/13 06:13:38;;;;;;;16.13;9.55;;;;;;;;;;5045758;28;20387;-64
2021/12/13 06:16:04;;;;;;;20.60;10.02;;;;;;;;;;5049898;28;20328;-64
2021/12/13 06:18:37;;;;;;;17.20;9.70;;;;;;;;;;5050884;28;20052;-64
2021/12/13 06:21:13;;;;;;;20.33;10.07;;;;;;;;;;5049183;28;20075;-64
2021/12/13 06:23:39;;;;;;;18.80;10.75;;;;;;;;;;5050383;28;20166;-64
2021/12/13 06:26:07;;;;;;;21.08;11.05;;;;;;;;;;5049877;28;20071;-64
2021/12/13 06:28:36;;;;;;;18.52;10.43;;;;;;;;;;5050971;28;20108;-64
2021/12/13 06:31:05;;;;;;;21.83;11.68;;;;;;;;;;5048764;28;20051;-64
2021/12/13 06:33:49;;;;;;;21.85;12.10;;;;;;;;;;5049923;28;20386;-64
2021/12/13 06:36:16;;;;;;;23.27;11.52;;;;;;;;;;5048563;28;20531;-64
2021/12/13 06:38:48;;;;;;;21.98;12.65;;;;;;;;;;5046177;28;20578;-65
2021/12/13 06:41:14;;;;;;;;;;;;;;;;;;5038330;28;20048;-64
2021/12/13 06:43:47;;;;;;;27.38;13.55;;;;;;;;;;5043766;28;19921;-65
2021/12/13 06:46:29;;;;;;;26.88;12.90;;;;;;;;;;5005308;28;20041;-64
2021/12/13 06:49:00;;;;;;;28.00;14.98;;;;;;;;;;5046094;28;20087;-64
2021/12/13 06:51:45;;;;;;;24.25;14.50;;;;;;;;;;5031101;28;20072;-64
2021/12/13 06:54:17;;;;;;;27.77;14.75;;;;;;;;;;5055616;28;20046;-64
2021/12/13 06:56:45;;;;;;;29.20;15.52;;;;;;;;;;5049037;28;20044;-64
2021/12/13 06:59:15;;;;;;;29.40;16.13;;;;;;;;;;5049881;28;20134;-65
2021/12/13 07:01:41;;;;;;;30.05;16.58;;;;;;;;;;5047750;28;20940;-64
2021/12/13 07:04:10;;;;;;;34.67;17.13;;;;;;;;;;5050574;28;20206;-64
2021/12/13 07:06:36;;;;;;;29.33;15.50;;;;;;;;;;5046380;28;20036;-64
2021/12/13 07:09:09;;;;;;;31.42;16.13;;;;;;;;;;5030812;28;20081;-65
2021/12/13 07:11:55;;;;;;;27.80;15.38;;;;;;;;;;5047873;28;20044;-64
2021/12/13 07:14:22;;;;;;;28.13;16.17;;;;;;;;;;5047300;28;20028;-65
2021/12/13 07:16:53;;;;;;;27.02;16.75;;;;;;;;;;5048027;28;20480;-65
2021/12/13 07:19:31;;;;;;;29.70;17.17;;;;;;;;;;5012934;28;20388;-65
2021/12/13 07:21:59;;;;;;;36.20;19.10;;;;;;;;;;5041864;28;20033;-64
2021/12/13 07:24:44;;;;;;;30.83;17.42;;;;;;;;;;5039015;28;20097;-63
2021/12/13 07:27:14;;;;;;;34.50;18.02;;;;;;;;;;5047012;28;20080;-65
2021/12/13 07:29:40;;;;;;;33.90;19.38;;;;;;;;;;5039404;28;20067;-65
2021/12/13 07:32:06;;;;;;;35.53;19.27;;;;;;;;;;5016306;28;20065;-64
2021/12/13 07:34:33;;;;;;;36.50;19.50;;;;;;;;;;5041465;28;20052;-63
2021/12/13 07:37:01;;;;;;;35.65;20.35;;;;;;;;;;5042313;28;20190;-64
2021/12/13 07:39:29;;;;;;;37.75;20.90;;;;;;;;;;5044650;28;20511;-63
2021/12/13 07:41:58;;;;;;;39.00;21.33;;;;;;;;;;5043437;28;20052;-63
2021/12/13 07:44:44;;;;;;;36.83;21.05;;;;;;;;;;5050168;28;20052;-63
2021/12/13 07:47:13;;;;;;;38.00;21.10;;;;;;;;;;5049113;28;20364;-64
2021/12/13 07:49:42;;;;;;;38.17;22.48;;;;;;;;;;5048651;28;20042;-65
2021/12/13 07:52:10;;;;;;;43.72;22.52;;;;;;;;;;5044684;28;20125;-64
2021/12/13 07:54:38;;;;;;;37.75;21.08;;;;;;;;;;5048290;28;20490;-65
2021/12/13 07:57:05;;;;;;;40.08;23.73;;;;;;;;;;5047224;28;20770;-63
2021/12/13 07:59:33;;;;;;;41.83;24.15;;;;;;;;;;5049472;28;20049;-65
2021/12/13 08:02:02;;;;;;;39.17;22.83;;;;;;;;;;5049379;28;20682;-65
2021/12/13 08:04:31;;;;;;;44.72;24.00;;;;;;;;;;5053467;28;20503;-65
2021/12/13 08:07:06;;;;;;;39.42;23.67;;;;;;;;;;5053831;28;20408;-65
2021/12/13 08:09:32;;;;;;;38.28;22.83;;;;;;;;;;5053476;28;20069;-64
2021/12/13 08:12:02;;;;;;;43.05;23.27;;;;;;;;;;5054296;28;20427;-64
2021/12/13 08:14:36;;;;;;;40.88;23.38;;;;;;;;;;5052976;28;20609;-64
2021/12/13 08:17:32;;;;;;;39.95;22.90;;;;;;;;;;5035084;28;20289;-65
2021/12/13 08:20:04;;;;;;;39.72;23.08;;;;;;;;;;5017181;28;20041;-65
2021/12/13 08:22:31;;;;;;;37.45;23.13;;;;;;;;;;5050721;28;20087;-65
2021/12/13 08:25:09;;;;;;;39.75;23.13;;;;;;;;;;5053157;28;20430;-65
2021/12/13 08:27:38;;;;;;;39.75;23.58;;;;;;;;;;5033598;28;20076;-66
2021/12/13 08:30:17;;;;;;;36.47;22.05;;;;;;;;;;5047158;28;20033;-65
2021/12/13 08:32:58;;;;;;;42.33;24.00;;;;;;;;;;5052699;28;20045;-64
2021/12/13 08:35:24;;;;;;;41.33;22.67;;;;;;;;;;5053176;28;20076;-65
2021/12/13 08:37:58;;;;;;;44.55;23.30;;;;;;;;;;5051744;28;20041;-64
2021/12/13 08:40:27;;;;;;;37.75;21.73;;;;;;;;;;5051592;28;20045;-64
2021/12/13 08:42:55;;;;;;;40.95;22.65;;;;;;;;;;5052825;28;20045;-64
2021/12/13 08:45:27;;;;;;;35.28;21.77;;;;;;;;;;5052455;28;20037;-64
2021/12/13 08:48:01;;;;;;;39.30;22.63;;;;;;;;;;5053930;28;20128;-65
2021/12/13 08:50:33;;;;;;;36.75;22.42;;;;;;;;;;5052186;28;20045;-65
2021/12/13 08:53:05;;;;;;;37.10;21.73;;;;;;;;;;5051907;28;20045;-64
2021/12/13 08:55:33;;;;;;;36.50;21.35;;;;;;;;;;5052812;28;20075;-66
2021/12/13 08:58:07;;;;;;;39.05;21.08;;;;;;;;;;5051674;28;20492;-65
2021/12/13 09:00:35;;;;;;;41.90;22.10;;;;;;;;;;5052290;28;20045;-65
2021/12/13 09:03:22;;;;;;;35.60;20.52;;;;;;;;;;5052465;28;20083;-66
2021/12/13 09:06:07;;;;;;;37.30;20.40;;;;;;;;;;5052443;28;20716;-66
2021/12/13 09:08:36;;;;;;;33.53;19.98;;;;;;;;;;5040961;28;20037;-64
2021/12/13 09:11:27;;;;;;;35.60;20.50;;;;;;;;;;5052375;28;20270;-64
2021/12/13 09:13:59;;;;;;;32.83;21.02;;;;;;;;;;5010915;28;20513;-64
2021/12/13 09:16:39;;;;;;;34.75;20.20;;;;;;;;;;5051995;28;20098;-64
2021/12/13 09:19:11;;;;;;;35.60;20.25;;;;;;;;;;5050948;28;20434;-65
2021/12/13 09:21:51;;;;;;;30.75;19.27;;;;;;;;;;5050042;28;20112;-65
2021/12/13 09:24:23;;;;;;;36.60;19.38;;;;;;;;;;5052071;28;20057;-64
2021/12/13 09:26:49;;;;;;;36.88;19.75;;;;;;;;;;5051529;28;20036;-64
2021/12/13 09:29:17;;;;;;;34.60;20.13;;;;;;;;;;5051490;28;20044;-64
2021/12/13 09:31:43;;;;;;;30.98;18.55;;;;;;;;;;5050743;28;20403;-64
2021/12/13 09:34:16;;;;;;;31.25;18.27;;;;;;;;;;5051191;28;20094;-64
2021/12/13 09:36:43;;;;;;;34.20;19.65;;;;;;;;;;5050817;28;20044;-64
2021/12/13 09:39:17;;;;;;;33.55;19.50;;;;;;;;;;5044879;28;20560;-64
2021/12/13 09:41:48;;;;;;;39.85;20.10;;;;;;;;;;5050807;28;20072;-65
2021/12/13 09:44:37;;;;;;;32.55;17.25;;;;;;;;;;5051783;28;20863;-65
2021/12/13 09:47:07;;;;;;;31.33;18.52;;;;;;;;;;5052056;28;20491;-65
2021/12/13 09:49:42;;;;;;;32.22;17.92;;;;;;;;;;5051588;28;20487;-65
2021/12/13 09:52:14;;;;;;;30.60;17.10;;;;;;;;;;5050152;28;20044;-66
2021/12/13 09:54:40;;;;;;;;;;;;;;;;;;5053347;28;20048;-65
2021/12/13 09:57:09;;;;;;;32.30;17.33;;;;;;;;;;5033937;28;19933;-65
2021/12/13 09:59:46;;;;;;;29.88;17.08;;;;;;;;;;5039614;28;20063;-66
2021/12/13 10:02:17;;;;;;;30.95;17.40;;;;;;;;;;5050220;28;20541;-65
2021/12/13 10:04:44;;;;;;;33.05;18.30;;;;;;;;;;5049032;28;20044;-66
2021/12/13 10:07:14;;;;;;;36.90;18.35;;;;;;;;;;5050101;28;20267;-66
2021/12/13 10:09:42;;;;;;;30.15;17.88;;;;;;;;;;5051904;28;20120;-66
2021/12/13 10:12:16;;;;;;;26.38;17.30;;;;;;;;;;5052221;28;20048;-66
2021/12/13 10:14:45;;;;;;;35.78;17.92;;;;;;;;;;5049200;28;20072;-66
2021/12/13 10:17:14;;;;;;;29.27;17.13;;;;;;;;;;5046934;28;20494;-66
2021/12/13 10:19:43;;;;;;;28.40;16.52;;;;;;;;;;5033762;28;20037;-65
2021/12/13 10:22:10;;;;;;;27.95;16.70;;;;;;;;;;5048758;28;20041;-66
2021/12/13 10:24:39;;;;;;;32.42;16.52;;;;;;;;;;5013313;28;20083;-64
2021/12/13 10:27:06;;;;;;;29.27;16.77;;;;;;;;;;5030449;28;20052;-66
2021/12/13 10:29:33;;;;;;;27.88;15.18;;;;;;;;;;5010074;28;20056;-66
2021/12/13 10:31:59;;;;;;;26.85;16.40;;;;;;;;;;5030904;28;20045;-65
2021/12/13 10:34:29;;;;;;;32.92;17.05;;;;;;;;;;5013923;28;20052;-66
2021/12/13 10:37:16;;;;;;;28.55;16.95;;;;;;;;;;5030696;28;20077;-65
2021/12/13 10:39:47;;;;;;;28.33;16.52;;;;;;;;;;5027220;28;20102;-66
2021/12/13 10:42:15;;;;;;;31.95;16.63;;;;;;;;;;5029920;28;20037;-66
2021/12/13 10:44:44;;;;;;;26.60;16.15;;;;;;;;;;5030233;28;20044;-67
2021/12/13 10:47:20;;;;;;;27.58;15.75;;;;;;;;;;5029012;28;20041;-67
2021/12/13 10:49:47;;;;;;;30.10;15.48;;;;;;;;;;5029522;28;20376;-67
2021/12/13 10:52:20;;;;;;;29.45;15.27;;;;;;;;;;5030721;28;20044;-68
2021/12/13 10:54:48;;;;;;;24.60;14.65;;;;;;;;;;5028954;28;20041;-66
2021/12/13 10:57:16;;;;;;;29.27;14.40;;;;;;;;;;5013266;28;20045;-66
2021/12/13 10:59:43;;;;;;;26.63;13.85;;;;;;;;;;5028348;28;20087;-66
2021/12/13 11:02:12;;;;;;;31.73;15.45;;;;;;;;;;5020280;28;20033;-68
2021/12/13 11:04:43;;;;;;;23.98;14.35;;;;;;;;;;5024449;28;20195;-66
2021/12/13 11:07:10;;;;;;;29.35;15.52;;;;;;;;;;5029144;28;20056;-67
2021/12/13 11:09:37;;;;;;;29.23;15.43;;;;;;;;;;5006198;28;20136;-66
2021/12/13 11:12:24;;;;;;;25.02;15.23;;;;;;;;;;5014454;28;20057;-65
2021/12/13 11:14:53;;;;;;;28.50;14.85;;;;;;;;;;5030094;28;20388;-66
2021/12/13 11:17:22;;;;;;;26.70;13.40;;;;;;;;;;5027807;28;20040;-64
2021/12/13 11:19:51;;;;;;;29.02;14.90;;;;;;;;;;5029285;28;20547;-65
2021/12/13 11:22:19;;;;;;;26.33;14.65;;;;;;;;;;5029516;28;20037;-68
2021/12/13 11:24:47;;;;;;;28.73;15.63;;;;;;;;;;5049504;28;20065;-67
2021/12/13 11:27:16;;;;;;;27.75;15.00;;;;;;;;;;5047075;28;20060;-67
2021/12/13 11:29:42;;;;;;;26.20;14.38;;;;;;;;;;5049316;28;20045;-66
2021/12/13 11:32:27;;;;;;;24.65;14.90;;;;;;;;;;5049642;28;20590;-65
2021/12/13 11:35:08;;;;;;;25.30;14.57;;;;;;;;;;5013533;28;20563;-65
2021/12/13 11:37:53;;;;;;;25.88;14.80;;;;;;;;;;5052831;28;20049;-65
2021/12/13 11:40:38;;;;;;;26.42;14.63;;;;;;;;;;5053544;28;20119;-66
2021/12/13 11:43:16;;;;;;;26.45;14.93;;;;;;;;;;5034227;28;20067;-66
2021/12/13 11:46:01;;;;;;;24.67;14.15;;;;;;;;;;5053667;28;20057;-65
2021/12/13 11:48:42;;;;;;;22.92;14.10;;;;;;;;;;5054153;28;20183;-66
2021/12/13 11:51:27;;;;;;;25.20;13.73;;;;;;;;;;5052659;28;20049;-65
2021/12/13 11:54:11;;;;;;;27.33;16.05;;;;;;;;;;5053581;28;20095;-66
2021/12/13 11:56:50;;;;;;;24.25;15.02;;;;;;;;;;5052322;28;20044;-66
2021/12/13 11:59:34;;;;;;;27.63;14.15;;;;;;;;;;5053431;28;20059;-66
2021/12/13 12:02:27;;;;;;;25.95;14.60;;;;;;;;;;5052043;28;20036;-66
2021/12/13 12:04:56;;;;;;;25.92;14.68;;;;;;;;;;5050295;28;20044;-67
2021/12/13 12:07:42;;;;;;;27.83;15.70;;;;;;;;;;5036254;28;20049;-65
2021/12/13 12:10:11;;;;;;;26.33;15.23;;;;;;;;;;5051617;28;20041;-65
2021/12/13 12:12:37;;;;;;;27.27;14.85;;;;;;;;;;5054451;28;20056;-66
2021/12/13 12:15:05;;;;;;;26.95;14.32;;;;;;;;;;5054361;28;20049;-66
2021/12/13 12:17:32;;;;;;;25.38;14.35;;;;;;;;;;5054486;28;20495;-66
2021/12/13 12:19:59;;;;;;;30.25;15.18;;;;;;;;;;5050785;28;20131;-65
2021/12/13 12:22:31;;;;;;;25.75;14.18;;;;;;;;;;5055471;28;20033;-66
2021/12/13 12:24:58;;;;;;;27.90;15.02;;;;;;;;;;5056147;28;20672;-65
2021/12/13 12:27:26;;;;;;;27.75;14.43;;;;;;;;;;5053712;28;20123;-64
2021/12/13 12:29:57;;;;;;;28.45;14.80;;;;;;;;;;5056210;28;20037;-65
2021/12/13 12:32:26;;;;;;;28.55;16.90;;;;;;;;;;5053918;28;20047;-64
2021/12/13 12:34:53;;;;;;;27.48;15.63;;;;;;;;;;5053982;28;20040;-65
2021/12/13 12:37:25;;;;;;;25.75;15.35;;;;;;;;;;5036432;28;20041;-65
2021/12/13 12:40:09;;;;;;;27.13;15.63;;;;;;;;;;5055057;28;20048;-66
2021/12/13 12:42:35;;;;;;;27.73;16.10;;;;;;;;;;5017907;28;20049;-65
2021/12/13 12:45:12;;;;;;;25.17;14.45;;;;;;;;;;5053493;28;20037;-66
2021/12/13 12:47:38;;;;;;;23.83;14.38;;;;;;;;;;5053754;28;20678;-66
2021/12/13 12:50:16;;;;;;;23.63;13.80;;;;;;;;;;5053457;28;20128;-66
2021/12/13 12:52:47;;;;;;;25.77;13.38;;;;;;;;;;5052004;28;20115;-65
2021/12/13 12:55:16;;;;;;;26.25;14.07;;;;;;;;;;5046983;28;20056;-65
2021/12/13 12:57:42;;;;;;;29.17;14.85;;;;;;;;;;5048288;28;20068;-64
2021/12/13 13:00:08;;;;;;;27.40;15.23;;;;;;;;;;5057713;28;20356;-66
2021/12/13 13:02:34;;;;;;;29.10;14.60;;;;;;;;;;5056869;28;20045;-66
2021/12/13 13:05:03;;;;;;;24.48;13.10;;;;;;;;;;5055328;28;20037;-65
2021/12/13 13:07:37;;;;;;;22.88;14.57;;;;;;;;;;5053087;28;20136;-65
2021/12/13 13:10:03;;;;;;;26.35;14.05;;;;;;;;;;5033598;28;20215;-65
2021/12/13 13:12:30;;;;;;;25.33;14.00;;;;;;;;;;5053234;28;20478;-64
2021/12/13 13:14:59;;;;;;;24.33;13.30;;;;;;;;;;5054217;28;20033;-65
2021/12/13 13:17:27;;;;;;;23.40;13.88;;;;;;;;;;5056348;28;20033;-65
2021/12/13 13:19:58;;;;;;;23.95;13.68;;;;;;;;;;5054948;28;20040;-65
2021/12/13 13:22:29;;;;;;;24.27;13.60;;;;;;;;;;5052286;28;20029;-65
2021/12/13 13:24:57;;;;;;;24.40;14.27;;;;;;;;;;5036148;28;20114;-65
2021/12/13 13:27:25;;;;;;;24.80;14.38;;;;;;;;;;5053674;28;20048;-65
2021/12/13 13:29:51;;;;;;;27.00;15.00;;;;;;;;;;5056013;28;20036;-65
2021/12/13 13:32:17;;;;;;;25.40;13.50;;;;;;;;;;5053929;28;20059;-64
2021/12/13 13:34:45;;;;;;;24.45;13.77;;;;;;;;;;5045515;28;20075;-66
2021/12/13 13:37:11;;;;;;;24.50;13.57;;;;;;;;;;5056712;28;20478;-67
2021/12/13 13:39:43;;;;;;;25.38;14.23;;;;;;;;;;5051351;28;20048;-67
2021/12/13 13:42:13;;;;;;;24.65;13.88;;;;;;;;;;5037367;28;20116;-66
2021/12/13 13:44:41;;;;;;;24.30;13.52;;;;;;;;;;5057833;28;20086;-66
2021/12/13 13:47:09;;;;;;;22.98;13.48;;;;;;;;;;5056590;28;20068;-66
2021/12/13 13:49:36;;;;;;;22.20;13.50;;;;;;;;;;5052663;28;20044;-65
2021/12/13 13:52:11;;;;;;;22.17;13.55;;;;;;;;;;5056291;28;20086;-67
2021/12/13 13:54:38;;;;;;;23.95;13.40;;;;;;;;;;5051038;28;20045;-66
2021/12/13 13:57:11;;;;;;;25.08;12.73;;;;;;;;;;5056750;28;20045;-66
2021/12/13 13:59:39;;;;;;;22.38;12.75;;;;;;;;;;5055202;28;20086;-66
2021/12/13 14:02:07;;;;;;;26.95;14.93;;;;;;;;;;5052248;28;20744;-67
2021/12/13 14:04:43;;;;;;;23.92;13.23;;;;;;;;;;5048049;28;20144;-65
2021/12/13 14:07:17;;;;;;;25.10;13.30;;;;;;;;;;5054775;28;20045;-65
2021/12/13 14:09:43;;;;;;;25.73;13.18;;;;;;;;;;5044911;28;20139;-66
2021/12/13 14:12:12;;;;;;;25.30;13.60;;;;;;;;;;5042646;28;20049;-67
2021/12/13 14:14:45;;;;;;;24.85;12.90;;;;;;;;;;5058941;28;20063;-67
2021/12/13 14:17:13;;;;;;;24.23;13.93;;;;;;;;;;5048859;28;20029;-65
2021/12/13 14:19:43;;;;;;;20.30;12.25;;;;;;;;;;5050623;28;20029;-65
2021/12/13 14:22:10;;;;;;;25.00;14.35;;;;;;;;;;5053282;28;20029;-66
2021/12/13 14:24:39;;;;;;;24.48;13.20;;;;;;;;;;5056798;28;20083;-65
2021/12/13 14:29:39;;;;;;;22.92;12.25;;;;;;;;;;4998176;28;20043;-66
2021/12/13 14:32:08;;;;;;;23.52;13.07;;;;;;;;;;4972665;28;20055;-66
2021/12/13 14:34:36;;;;;;;23.23;12.57;;;;;;;;;;4978606;28;20046;-65
2021/12/13 14:37:02;;;;;;;25.65;13.45;;;;;;;;;;4973930;28;20042;-65
2021/12/13 14:39:30;;;;;;;19.48;11.55;;;;;;;;;;4973327;28;20062;-68
2021/12/13 14:41:58;;;;;;;23.77;12.57;;;;;;;;;;4971595;28;20398;-66
2021/12/13 14:44:26;;;;;;;20.38;11.55;;;;;;;;;;4971646;28;20039;-65
2021/12/13 14:46:54;;;;;;;20.67;11.00;;;;;;;;;;4970734;28;20051;-65
2021/12/13 14:49:21;;;;;;;21.30;12.13;;;;;;;;;;4971790;28;20176;-67